sensor_id;sensor_type;location;lat;lon;timestamp;pressure;altitude;pressure_sealevel;temperature;humidity
35806;BME280;21925;44.608;11.580;2023-01-26T00:00:51;101965.09;;;5.64;100.00
35806;BME280;21925;44.608;11.580;2023-01-26T00:03:22;101837.91;;;4.90;100.00
35806;BME280;21925;44.608;11.580;2023-01-26T00:05:50;101865.97;;;5.14;100.00
35806;BME280;21925;44.608;11.580;2023-01-26T00:08:17;101913.28;;;5.13;100.00
35806;BME280;21925;44.608;11.580;2023-01-26T00:10:43;101906.28;;;5.07;100.00
35806;BME280;21925;44.608;11.580;2023-01-26T00:13:17;101934.56;;;5.39;100.00
35806;BME280;21925;44.608;11.580;2023-01-26T00:15:44;101946.13;;;5.54;100.00
35806;BME280;21925;44.608;11.580;2023-01-26T00:18:11;101911.25;;;5.61;100.00
35806;BME280;21925;44.608;11.580;2023-01-26T00:20:37;101940.03;;;5.67;100.00
35806;BME280;21925;44.608;11.580;2023-01-26T00:23:03;101911.25;;;5.61;100.00
35806;BME280;21925;44.608;11.580;2023-01-26T00:25:29;101940.41;;;5.89;100.00
35806;BME280;21925;44.608;11.580;2023-01-26T00:27:58;101938.19;;;5.91;100.00
35806;BME280;21925;44.608;11.580;2023-01-26T00:30:24;101864.84;;;5.20;100.00
35806;BME280;21925;44.608;11.580;2023-01-26T00:32:50;101915.69;;;5.52;100.00
35806;BME280;21925;44.608;11.580;2023-01-26T00:35:16;101940.78;;;5.73;100.00
35806;BME280;21925;44.608;11.580;2023-01-26T00:37:42;101873.84;;;5.49;100.00
35806;BME280;21925;44.608;11.580;2023-01-26T00:40:09;101871.16;;;5.44;100.00
35806;BME280;21925;44.608;11.580;2023-01-26T00:42:35;101919.56;;;6.03;100.00
35806;BME280;21925;44.608;11.580;2023-01-26T00:45:01;101867.41;;;5.68;100.00
35806;BME280;21925;44.608;11.580;2023-01-26T00:47:27;101832.59;;;5.37;100.00
35806;BME280;21925;44.608;11.580;2023-01-26T00:49:55;101901.41;;;5.65;100.00
35806;BME280;21925;44.608;11.580;2023-01-26T00:52:24;101834.84;;;5.30;100.00
35806;BME280;21925;44.608;11.580;2023-01-26T00:54:53;101911.44;;;5.98;100.00
35806;BME280;21925;44.608;11.580;2023-01-26T00:57:19;101903.25;;;6.03;100.00
35806;BME280;21925;44.608;11.580;2023-01-26T00:59:45;101845.78;;;5.81;100.00
35806;BME280;21925;44.608;11.580;2023-01-26T01:02:11;101867.44;;;5.91;100.00
35806;BME280;21925;44.608;11.580;2023-01-26T01:04:36;101913.38;;;6.21;100.00
35806;BME280;21925;44.608;11.580;2023-01-26T01:07:05;101802.59;;;5.47;100.00
35806;BME280;21925;44.608;11.580;2023-01-26T01:09:32;101882.25;;;5.75;100.00
35806;BME280;21925;44.608;11.580;2023-01-26T01:11:58;101754.47;;;4.90;100.00
35806;BME280;21925;44.608;11.580;2023-01-26T01:14:26;101852.34;;;5.19;100.00
35806;BME280;21925;44.608;11.580;2023-01-26T01:16:51;101855.34;;;5.17;100.00
35806;BME280;21925;44.608;11.580;2023-01-26T01:19:18;101791.59;;;4.72;100.00
35806;BME280;21925;44.608;11.580;2023-01-26T01:21:44;101817.19;;;4.99;100.00
35806;BME280;21925;44.608;11.580;2023-01-26T01:24:10;101829.63;;;5.05;100.00
35806;BME280;21925;44.608;11.580;2023-01-26T01:26:37;101891.75;;;5.49;100.00
35806;BME280;21925;44.608;11.580;2023-01-26T01:29:04;101763.75;;;4.84;100.00
35806;BME280;21925;44.608;11.580;2023-01-26T01:31:30;101851.41;;;5.61;100.00
35806;BME280;21925;44.608;11.580;2023-01-26T01:33:56;101862.88;;;6.10;100.00
35806;BME280;21925;44.608;11.580;2023-01-26T01:36:22;101907.13;;;6.44;100.00
35806;BME280;21925;44.608;11.580;2023-01-26T01:38:50;101855.56;;;6.29;100.00
35806;BME280;21925;44.608;11.580;2023-01-26T01:41:19;101884.00;;;6.18;100.00
35806;BME280;21925;44.608;11.580;2023-01-26T01:43:47;101708.25;;;4.62;100.00
35806;BME280;21925;44.608;11.580;2023-01-26T01:48:50;101884.00;;;6.18;100.00
35806;BME280;21925;44.608;11.580;2023-01-26T01:53:56;101826.25;;;6.21;100.00
35806;BME280;21925;44.608;11.580;2023-01-26T01:56:26;101882.16;;;6.14;100.00
35806;BME280;21925;44.608;11.580;2023-01-26T01:58:54;101879.75;;;6.07;100.00
35806;BME280;21925;44.608;11.580;2023-01-26T02:01:23;101871.81;;;6.11;100.00
35806;BME280;21925;44.608;11.580;2023-01-26T02:03:51;101776.97;;;5.52;100.00
35806;BME280;21925;44.608;11.580;2023-01-26T02:06:29;101817.56;;;5.72;100.00
35806;BME280;21925;44.608;11.580;2023-01-26T02:08:58;101841.81;;;5.69;100.00
35806;BME280;21925;44.608;11.580;2023-01-26T02:14:02;101803.81;;;5.87;100.00
35806;BME280;21925;44.608;11.580;2023-01-26T02:16:29;101824.09;;;5.71;100.00
35806;BME280;21925;44.608;11.580;2023-01-26T02:18:54;101787.25;;;4.71;100.00
35806;BME280;21925;44.608;11.580;2023-01-26T02:21:22;101826.44;;;4.93;100.00
35806;BME280;21925;44.608;11.580;2023-01-26T02:24:03;101863.38;;;4.99;100.00
35806;BME280;21925;44.608;11.580;2023-01-26T02:26:36;101698.44;;;3.94;100.00
35806;BME280;21925;44.608;11.580;2023-01-26T02:29:06;101852.66;;;4.79;100.00
35806;BME280;21925;44.608;11.580;2023-01-26T02:31:35;101845.22;;;4.94;100.00
35806;BME280;21925;44.608;11.580;2023-01-26T02:34:03;101817.84;;;4.81;100.00
35806;BME280;21925;44.608;11.580;2023-01-26T02:36:30;101845.03;;;4.81;100.00
35806;BME280;21925;44.608;11.580;2023-01-26T02:41:23;101809.88;;;4.56;100.00
35806;BME280;21925;44.608;11.580;2023-01-26T02:44:09;101830.47;;;4.67;100.00
35806;BME280;21925;44.608;11.580;2023-01-26T02:46:36;101828.78;;;4.76;100.00
35806;BME280;21925;44.608;11.580;2023-01-26T02:49:02;101769.75;;;4.48;100.00
35806;BME280;21925;44.608;11.580;2023-01-26T02:51:46;101806.94;;;4.91;100.00
35806;BME280;21925;44.608;11.580;2023-01-26T02:54:12;101803.84;;;5.02;100.00
35806;BME280;21925;44.608;11.580;2023-01-26T02:56:59;101792.94;;;4.69;100.00
35806;BME280;21925;44.608;11.580;2023-01-26T02:59:26;101757.97;;;4.63;100.00
35806;BME280;21925;44.608;11.580;2023-01-26T03:01:52;101763.25;;;4.44;100.00
35806;BME280;21925;44.608;11.580;2023-01-26T03:04:20;101734.06;;;4.26;100.00
35806;BME280;21925;44.608;11.580;2023-01-26T03:06:45;101808.66;;;5.10;100.00
35806;BME280;21925;44.608;11.580;2023-01-26T03:09:11;101768.06;;;4.90;100.00
35806;BME280;21925;44.608;11.580;2023-01-26T03:11:37;101798.97;;;4.99;100.00
35806;BME280;21925;44.608;11.580;2023-01-26T03:14:13;101777.53;;;4.93;100.00
35806;BME280;21925;44.608;11.580;2023-01-26T03:16:39;101748.50;;;4.55;100.00
35806;BME280;21925;44.608;11.580;2023-01-26T03:19:10;101744.47;;;4.53;100.00
35806;BME280;21925;44.608;11.580;2023-01-26T03:21:56;101805.28;;;4.90;100.00
35806;BME280;21925;44.608;11.580;2023-01-26T03:24:40;101796.63;;;4.88;100.00
35806;BME280;21925;44.608;11.580;2023-01-26T03:27:25;101801.38;;;5.01;100.00
35806;BME280;21925;44.608;11.580;2023-01-26T03:29:52;101717.44;;;4.33;100.00
35806;BME280;21925;44.608;11.580;2023-01-26T03:32:18;101711.44;;;4.69;100.00
35806;BME280;21925;44.608;11.580;2023-01-26T03:34:45;101730.13;;;4.80;100.00
35806;BME280;21925;44.608;11.580;2023-01-26T03:37:10;101786.19;;;5.28;100.00
35806;BME280;21925;44.608;11.580;2023-01-26T03:39:45;101760.06;;;5.04;100.00
35806;BME280;21925;44.608;11.580;2023-01-26T03:42:30;101738.06;;;5.29;100.00
35806;BME280;21925;44.608;11.580;2023-01-26T03:45:15;101742.31;;;5.40;100.00
35806;BME280;21925;44.608;11.580;2023-01-26T03:48:07;101757.28;;;5.60;100.00
35806;BME280;21925;44.608;11.580;2023-01-26T03:50:52;101779.03;;;5.60;100.00
35806;BME280;21925;44.608;11.580;2023-01-26T03:53:36;101753.94;;;5.45;100.00
35806;BME280;21925;44.608;11.580;2023-01-26T03:56:21;101773.59;;;5.60;100.00
35806;BME280;21925;44.608;11.580;2023-01-26T03:58:56;101753.44;;;5.38;100.00
35806;BME280;21925;44.608;11.580;2023-01-26T04:01:25;101770.34;;;5.58;100.00
35806;BME280;21925;44.608;11.580;2023-01-26T04:03:57;101762.50;;;5.57;100.00
35806;BME280;21925;44.608;11.580;2023-01-26T04:06:45;101740.03;;;5.47;100.00
35806;BME280;21925;44.608;11.580;2023-01-26T04:09:31;101710.09;;;5.00;100.00
35806;BME280;21925;44.608;11.580;2023-01-26T04:11:57;101696.38;;;4.86;100.00
35806;BME280;21925;44.608;11.580;2023-01-26T04:14:23;101739.75;;;5.25;100.00
35806;BME280;21925;44.608;11.580;2023-01-26T04:17:08;101694.91;;;4.94;100.00
35806;BME280;21925;44.608;11.580;2023-01-26T04:19:52;101734.25;;;5.30;100.00
35806;BME280;21925;44.608;11.580;2023-01-26T04:22:40;101749.88;;;5.43;100.00
35806;BME280;21925;44.608;11.580;2023-01-26T04:25:16;101706.94;;;5.40;100.00
35806;BME280;21925;44.608;11.580;2023-01-26T04:27:42;101647.34;;;5.20;100.00
35806;BME280;21925;44.608;11.580;2023-01-26T04:30:11;101738.81;;;6.04;100.00
35806;BME280;21925;44.608;11.580;2023-01-26T04:32:37;101721.56;;;5.90;100.00
35806;BME280;21925;44.608;11.580;2023-01-26T04:35:05;101745.31;;;5.85;100.00
35806;BME280;21925;44.608;11.580;2023-01-26T04:37:32;101635.50;;;5.11;100.00
35806;BME280;21925;44.608;11.580;2023-01-26T04:39:59;101741.66;;;5.48;100.00
35806;BME280;21925;44.608;11.580;2023-01-26T04:42:27;101710.94;;;5.24;100.00
35806;BME280;21925;44.608;11.580;2023-01-26T04:44:54;101695.22;;;4.92;100.00
35806;BME280;21925;44.608;11.580;2023-01-26T04:47:21;101711.66;;;5.06;100.00
35806;BME280;21925;44.608;11.580;2023-01-26T04:49:46;101629.25;;;4.59;100.00
35806;BME280;21925;44.608;11.580;2023-01-26T04:52:15;101715.47;;;5.05;100.00
35806;BME280;21925;44.608;11.580;2023-01-26T04:54:41;101731.88;;;4.95;100.00
35806;BME280;21925;44.608;11.580;2023-01-26T04:57:07;101692.59;;;4.82;100.00
35806;BME280;21925;44.608;11.580;2023-01-26T04:59:34;101695.03;;;4.84;100.00
35806;BME280;21925;44.608;11.580;2023-01-26T05:02:08;101619.00;;;4.22;100.00
35806;BME280;21925;44.608;11.580;2023-01-26T05:04:34;101613.25;;;4.29;100.00
35806;BME280;21925;44.608;11.580;2023-01-26T05:07:00;101635.59;;;4.49;100.00
35806;BME280;21925;44.608;11.580;2023-01-26T05:09:26;101625.00;;;4.19;100.00
35806;BME280;21925;44.608;11.580;2023-01-26T05:12:10;101717.81;;;4.88;100.00
35806;BME280;21925;44.608;11.580;2023-01-26T05:15:13;101693.47;;;4.45;100.00
35806;BME280;21925;44.608;11.580;2023-01-26T05:17:50;101624.91;;;4.29;100.00
35806;BME280;21925;44.608;11.580;2023-01-26T05:20:34;101695.94;;;4.74;100.00
35806;BME280;21925;44.608;11.580;2023-01-26T05:23:21;101649.78;;;4.41;100.00
35806;BME280;21925;44.608;11.580;2023-01-26T05:26:06;101699.03;;;4.63;100.00
35806;BME280;21925;44.608;11.580;2023-01-26T05:28:42;101631.06;;;4.11;100.00
35806;BME280;21925;44.608;11.580;2023-01-26T05:31:08;101636.00;;;4.33;100.00
35806;BME280;21925;44.608;11.580;2023-01-26T05:33:34;101704.44;;;4.68;100.00
35806;BME280;21925;44.608;11.580;2023-01-26T05:36:04;101700.81;;;4.72;100.00
35806;BME280;21925;44.608;11.580;2023-01-26T05:38:30;101678.50;;;4.52;100.00
35806;BME280;21925;44.608;11.580;2023-01-26T05:40:56;101647.22;;;4.26;100.00
35806;BME280;21925;44.608;11.580;2023-01-26T05:43:23;101647.69;;;4.33;100.00
35806;BME280;21925;44.608;11.580;2023-01-26T05:46:08;101652.50;;;4.41;100.00
35806;BME280;21925;44.608;11.580;2023-01-26T05:48:34;101627.97;;;4.23;100.00
35806;BME280;21925;44.608;11.580;2023-01-26T05:51:00;101633.66;;;4.21;100.00
35806;BME280;21925;44.608;11.580;2023-01-26T05:53:27;101593.50;;;3.90;100.00
35806;BME280;21925;44.608;11.580;2023-01-26T05:55:52;101612.84;;;4.12;100.00
35806;BME280;21925;44.608;11.580;2023-01-26T05:58:21;101671.72;;;4.78;100.00
35806;BME280;21925;44.608;11.580;2023-01-26T06:00:47;101703.91;;;4.94;100.00
35806;BME280;21925;44.608;11.580;2023-01-26T06:03:20;101627.50;;;4.44;100.00
35806;BME280;21925;44.608;11.580;2023-01-26T06:05:52;101642.56;;;4.60;100.00
35806;BME280;21925;44.608;11.580;2023-01-26T06:08:24;101675.97;;;4.61;100.00
35806;BME280;21925;44.608;11.580;2023-01-26T06:11:03;101611.47;;;4.71;100.00
35806;BME280;21925;44.608;11.580;2023-01-26T06:13:54;101668.91;;;4.88;100.00
35806;BME280;21925;44.608;11.580;2023-01-26T06:16:22;101684.91;;;4.61;100.00
35806;BME280;21925;44.608;11.580;2023-01-26T06:18:49;101708.00;;;4.64;100.00
35806;BME280;21925;44.608;11.580;2023-01-26T06:21:15;101704.97;;;4.65;100.00
35806;BME280;21925;44.608;11.580;2023-01-26T06:23:42;101663.91;;;4.43;100.00
35806;BME280;21925;44.608;11.580;2023-01-26T06:26:08;101636.22;;;4.41;100.00
35806;BME280;21925;44.608;11.580;2023-01-26T06:28:33;101558.06;;;3.77;100.00
35806;BME280;21925;44.608;11.580;2023-01-26T06:31:02;101637.31;;;4.40;100.00
35806;BME280;21925;44.608;11.580;2023-01-26T06:33:31;101714.03;;;4.56;100.00
35806;BME280;21925;44.608;11.580;2023-01-26T06:36:11;101694.72;;;4.57;100.00
35806;BME280;21925;44.608;11.580;2023-01-26T06:38:38;101700.34;;;4.66;100.00
35806;BME280;21925;44.608;11.580;2023-01-26T06:41:06;101703.13;;;4.61;100.00
35806;BME280;21925;44.608;11.580;2023-01-26T06:43:33;101670.38;;;4.47;100.00
35806;BME280;21925;44.608;11.580;2023-01-26T06:45:59;101702.56;;;4.64;100.00
35806;BME280;21925;44.608;11.580;2023-01-26T06:48:27;101680.88;;;4.20;100.00
35806;BME280;21925;44.608;11.580;2023-01-26T06:51:04;101701.16;;;4.33;100.00
35806;BME280;21925;44.608;11.580;2023-01-26T06:53:37;101702.84;;;4.29;100.00
35806;BME280;21925;44.608;11.580;2023-01-26T06:56:34;101656.19;;;4.22;100.00
35806;BME280;21925;44.608;11.580;2023-01-26T06:59:26;101701.56;;;4.50;100.00
35806;BME280;21925;44.608;11.580;2023-01-26T07:01:52;101707.69;;;4.65;100.00
35806;BME280;21925;44.608;11.580;2023-01-26T07:04:18;101702.94;;;4.52;100.00
35806;BME280;21925;44.608;11.580;2023-01-26T07:06:44;101649.22;;;4.44;100.00
35806;BME280;21925;44.608;11.580;2023-01-26T07:09:10;101703.81;;;5.04;100.00
35806;BME280;21925;44.608;11.580;2023-01-26T07:11:39;101711.66;;;5.06;100.00
35806;BME280;21925;44.608;11.580;2023-01-26T07:14:05;101722.53;;;5.06;100.00
35806;BME280;21925;44.608;11.580;2023-01-26T07:16:31;101684.41;;;4.59;100.00
35806;BME280;21925;44.608;11.580;2023-01-26T07:18:57;101711.22;;;4.94;100.00
35806;BME280;21925;44.608;11.580;2023-01-26T07:21:26;101712.28;;;4.98;100.00
35806;BME280;21925;44.608;11.580;2023-01-26T07:23:51;101673.31;;;4.51;100.00
35806;BME280;21925;44.608;11.580;2023-01-26T07:26:19;101697.41;;;4.62;100.00
35806;BME280;21925;44.608;11.580;2023-01-26T07:28:44;101700.69;;;4.59;100.00
35806;BME280;21925;44.608;11.580;2023-01-26T07:31:11;101716.00;;;4.78;100.00
35806;BME280;21925;44.608;11.580;2023-01-26T07:33:37;101654.63;;;4.44;100.00
35806;BME280;21925;44.608;11.580;2023-01-26T07:36:03;101592.53;;;4.09;100.00
35806;BME280;21925;44.608;11.580;2023-01-26T07:38:29;101629.00;;;4.60;100.00
35806;BME280;21925;44.608;11.580;2023-01-26T07:40:55;101629.63;;;4.75;100.00
35806;BME280;21925;44.608;11.580;2023-01-26T07:43:21;101689.28;;;5.14;100.00
35806;BME280;21925;44.608;11.580;2023-01-26T07:45:51;101612.16;;;4.58;100.00
35806;BME280;21925;44.608;11.580;2023-01-26T07:48:19;101681.44;;;5.12;100.00
35806;BME280;21925;44.608;11.580;2023-01-26T07:50:45;101600.72;;;4.61;100.00
35806;BME280;21925;44.608;11.580;2023-01-26T07:53:15;101714.25;;;5.44;100.00
35806;BME280;21925;44.608;11.580;2023-01-26T07:55:44;101635.78;;;4.86;100.00
35806;BME280;21925;44.608;11.580;2023-01-26T07:58:11;101710.06;;;5.28;100.00
35806;BME280;21925;44.608;11.580;2023-01-26T08:00:37;101711.28;;;5.41;100.00
35806;BME280;21925;44.608;11.580;2023-01-26T08:03:04;101676.25;;;5.11;100.00
35806;BME280;21925;44.608;11.580;2023-01-26T08:05:30;101695.88;;;5.54;100.00
35806;BME280;21925;44.608;11.580;2023-01-26T08:08:00;101707.28;;;5.56;100.00
35806;BME280;21925;44.608;11.580;2023-01-26T08:10:31;101650.59;;;5.22;100.00
35806;BME280;21925;44.608;11.580;2023-01-26T08:12:58;101706.22;;;5.52;100.00
35806;BME280;21925;44.608;11.580;2023-01-26T08:15:27;101705.53;;;5.65;100.00
35806;BME280;21925;44.608;11.580;2023-01-26T08:17:53;101625.50;;;5.30;100.00
35806;BME280;21925;44.608;11.580;2023-01-26T08:20:20;101679.84;;;5.76;100.00
35806;BME280;21925;44.608;11.580;2023-01-26T08:22:47;101609.28;;;5.20;100.00
35806;BME280;21925;44.608;11.580;2023-01-26T08:25:13;101712.81;;;5.93;100.00
35806;BME280;21925;44.608;11.580;2023-01-26T08:27:42;101659.78;;;5.67;100.00
35806;BME280;21925;44.608;11.580;2023-01-26T08:30:09;101648.38;;;5.65;100.00
35806;BME280;21925;44.608;11.580;2023-01-26T08:32:35;101651.06;;;5.70;100.00
35806;BME280;21925;44.608;11.580;2023-01-26T08:35:02;101707.22;;;6.03;100.00
35806;BME280;21925;44.608;11.580;2023-01-26T08:37:28;101661.88;;;5.75;100.00
35806;BME280;21925;44.608;11.580;2023-01-26T08:39:54;101683.66;;;5.94;99.37
35806;BME280;21925;44.608;11.580;2023-01-26T08:42:20;101637.78;;;5.87;99.90
35806;BME280;21925;44.608;11.580;2023-01-26T08:44:46;101671.97;;;6.12;100.00
35806;BME280;21925;44.608;11.580;2023-01-26T08:47:11;101663.53;;;6.13;99.26
35806;BME280;21925;44.608;11.580;2023-01-26T08:49:37;101621.13;;;5.70;99.40
35806;BME280;21925;44.608;11.580;2023-01-26T08:52:03;101706.63;;;6.43;99.44
35806;BME280;21925;44.608;11.580;2023-01-26T08:54:30;101714.06;;;6.37;100.00
35806;BME280;21925;44.608;11.580;2023-01-26T08:56:58;101686.69;;;6.47;100.00
35806;BME280;21925;44.608;11.580;2023-01-26T08:59:37;101702.97;;;6.98;99.93
35806;BME280;21925;44.608;11.580;2023-01-26T09:02:12;101690.44;;;6.97;98.31
35806;BME280;21925;44.608;11.580;2023-01-26T09:04:42;101690.16;;;6.98;98.32
35806;BME280;21925;44.608;11.580;2023-01-26T09:07:10;101679.75;;;7.13;98.32
35806;BME280;21925;44.608;11.580;2023-01-26T09:09:49;101680.38;;;7.37;99.13
35806;BME280;21925;44.608;11.580;2023-01-26T09:12:41;101631.59;;;7.22;98.34
35806;BME280;21925;44.608;11.580;2023-01-26T09:15:09;101610.28;;;7.24;95.73
35806;BME280;21925;44.608;11.580;2023-01-26T09:17:36;101697.31;;;7.88;94.23
35806;BME280;21925;44.608;11.580;2023-01-26T09:20:03;101598.53;;;7.51;93.47
35806;BME280;21925;44.608;11.580;2023-01-26T09:22:29;101645.09;;;8.16;92.52
35806;BME280;21925;44.608;11.580;2023-01-26T09:24:55;101688.19;;;8.06;88.31
35806;BME280;21925;44.608;11.580;2023-01-26T09:27:21;101672.47;;;8.25;88.73
35806;BME280;21925;44.608;11.580;2023-01-26T09:29:47;101664.72;;;8.18;88.30
35806;BME280;21925;44.608;11.580;2023-01-26T09:32:13;101631.94;;;7.70;87.97
35806;BME280;21925;44.608;11.580;2023-01-26T09:34:42;101644.56;;;7.79;88.48
35806;BME280;21925;44.608;11.580;2023-01-26T09:37:08;101673.88;;;7.87;89.15
35806;BME280;21925;44.608;11.580;2023-01-26T09:39:35;101692.56;;;7.93;90.39
35806;BME280;21925;44.608;11.580;2023-01-26T09:45:57;101699.44;;;8.40;91.21
35806;BME280;21925;44.608;11.580;2023-01-26T09:48:46;101672.72;;;8.59;89.18
35806;BME280;21925;44.608;11.580;2023-01-26T09:54:26;101659.50;;;9.43;89.34
35806;BME280;21925;44.608;11.580;2023-01-26T09:57:00;101682.34;;;9.47;89.06
35806;BME280;21925;44.608;11.580;2023-01-26T10:02:29;101614.59;;;9.05;87.52
35806;BME280;21925;44.608;11.580;2023-01-26T10:05:04;101681.38;;;9.43;83.59
35806;BME280;21925;44.608;11.580;2023-01-26T10:07:35;101658.84;;;9.46;81.64
35806;BME280;21925;44.608;11.580;2023-01-26T10:10:14;101622.50;;;9.71;79.28
35806;BME280;21925;44.608;11.580;2023-01-26T10:13:26;101642.56;;;10.14;81.17
35806;BME280;21925;44.608;11.580;2023-01-26T10:15:57;101665.22;;;9.89;83.01
35806;BME280;21925;44.608;11.580;2023-01-26T10:18:27;101650.88;;;9.75;83.03
35806;BME280;21925;44.608;11.580;2023-01-26T10:20:55;101626.75;;;10.11;83.35
35806;BME280;21925;44.608;11.580;2023-01-26T10:23:33;101635.28;;;10.34;84.00
35806;BME280;21925;44.608;11.580;2023-01-26T10:26:12;101631.50;;;10.81;81.71
35806;BME280;21925;44.608;11.580;2023-01-26T10:28:40;101649.50;;;11.74;79.26
35806;BME280;21925;44.608;11.580;2023-01-26T10:31:19;101644.94;;;11.49;74.10
35806;BME280;21925;44.608;11.580;2023-01-26T10:34:12;101641.56;;;11.52;77.14
35806;BME280;21925;44.608;11.580;2023-01-26T10:36:40;101633.97;;;11.78;74.34
35806;BME280;21925;44.608;11.580;2023-01-26T10:39:12;101629.59;;;11.48;71.46
35806;BME280;21925;44.608;11.580;2023-01-26T10:41:39;101634.44;;;11.51;70.89
35806;BME280;21925;44.608;11.580;2023-01-26T10:51:36;101556.69;;;11.59;68.04
35806;BME280;21925;44.608;11.580;2023-01-26T10:54:22;101626.06;;;11.76;66.37
35806;BME280;21925;44.608;11.580;2023-01-26T10:56:59;101620.28;;;12.30;71.71
35806;BME280;21925;44.608;11.580;2023-01-26T10:59:37;101618.44;;;12.02;66.88
35806;BME280;21925;44.608;11.580;2023-01-26T11:07:36;101604.44;;;12.48;68.61
35806;BME280;21925;44.608;11.580;2023-01-26T11:10:21;101580.91;;;11.86;65.50
35806;BME280;21925;44.608;11.580;2023-01-26T11:16:20;101586.22;;;12.55;65.83
35806;BME280;21925;44.608;11.580;2023-01-26T11:21:24;101542.69;;;12.25;69.57
35806;BME280;21925;44.608;11.580;2023-01-26T11:30:00;101564.34;;;11.74;66.12
35806;BME280;21925;44.608;11.580;2023-01-26T11:35:38;101552.03;;;11.51;67.82
35806;BME280;21925;44.608;11.580;2023-01-26T11:38:37;101469.56;;;11.39;69.69
35806;BME280;21925;44.608;11.580;2023-01-26T11:41:36;101550.59;;;11.74;70.82
35806;BME280;21925;44.608;11.580;2023-01-26T11:50:33;101537.34;;;11.76;69.22
35806;BME280;21925;44.608;11.580;2023-01-26T11:59:09;101509.47;;;11.86;64.88
35806;BME280;21925;44.608;11.580;2023-01-26T12:01:41;101485.06;;;11.84;66.85
35806;BME280;21925;44.608;11.580;2023-01-26T12:04:20;101469.28;;;11.61;66.63
35806;BME280;21925;44.608;11.580;2023-01-26T12:07:18;101343.88;;;10.71;66.98
35806;BME280;21925;44.608;11.580;2023-01-26T12:09:49;101363.59;;;10.65;66.85
35806;BME280;21925;44.608;11.580;2023-01-26T12:15:28;101497.72;;;12.41;74.48
35806;BME280;21925;44.608;11.580;2023-01-26T12:20:42;101474.69;;;12.58;68.15
35806;BME280;21925;44.608;11.580;2023-01-26T12:23:24;101473.91;;;12.69;71.91
35806;BME280;21925;44.608;11.580;2023-01-26T12:25:59;101406.66;;;11.87;67.04
35806;BME280;21925;44.608;11.580;2023-01-26T12:28:41;101453.81;;;11.89;66.64
35806;BME280;21925;44.608;11.580;2023-01-26T12:34:11;101381.44;;;10.71;68.09
35806;BME280;21925;44.608;11.580;2023-01-26T12:45:18;101441.19;;;11.35;67.73
35806;BME280;21925;44.608;11.580;2023-01-26T12:48:00;101444.09;;;11.59;66.56
35806;BME280;21925;44.608;11.580;2023-01-26T12:50:59;101430.88;;;11.73;66.51
35806;BME280;21925;44.608;11.580;2023-01-26T12:53:40;101388.06;;;11.72;70.60
35806;BME280;21925;44.608;11.580;2023-01-26T12:58:52;101383.34;;;11.19;66.60
35806;BME280;21925;44.608;11.580;2023-01-26T13:01:23;101415.75;;;11.67;68.24
35806;BME280;21925;44.608;11.580;2023-01-26T13:03:57;101317.47;;;11.19;71.86
35806;BME280;21925;44.608;11.580;2023-01-26T13:06:28;101413.25;;;11.74;69.32
35806;BME280;21925;44.608;11.580;2023-01-26T13:11:55;101343.00;;;10.79;68.78
35806;BME280;21925;44.608;11.580;2023-01-26T13:27:39;101399.00;;;11.60;68.58
35806;BME280;21925;44.608;11.580;2023-01-26T13:35:43;101385.69;;;11.29;68.57
35806;BME280;21925;44.608;11.580;2023-01-26T13:38:46;101387.56;;;11.58;69.09
35806;BME280;21925;44.608;11.580;2023-01-26T13:41:19;101382.84;;;11.79;70.31
35806;BME280;21925;44.608;11.580;2023-01-26T13:44:14;101377.22;;;11.87;68.74
35806;BME280;21925;44.608;11.580;2023-01-26T13:46:48;101367.50;;;11.90;68.59
35806;BME280;21925;44.608;11.580;2023-01-26T13:49:38;101381.19;;;11.45;66.86
35806;BME280;21925;44.608;11.580;2023-01-26T13:52:25;101381.28;;;11.16;67.63
35806;BME280;21925;44.608;11.580;2023-01-26T13:54:59;101365.22;;;11.07;67.33
35806;BME280;21925;44.608;11.580;2023-01-26T13:57:29;101371.63;;;11.10;68.02
35806;BME280;21925;44.608;11.580;2023-01-26T13:59:58;101372.34;;;11.40;69.98
35806;BME280;21925;44.608;11.580;2023-01-26T14:02:28;101277.28;;;11.03;69.67
35806;BME280;21925;44.608;11.580;2023-01-26T14:05:03;101313.44;;;11.05;66.89
35806;BME280;21925;44.608;11.580;2023-01-26T14:07:42;101379.19;;;11.54;66.61
35806;BME280;21925;44.608;11.580;2023-01-26T14:10:19;101349.09;;;11.05;66.35
35806;BME280;21925;44.608;11.580;2023-01-26T14:12:52;101386.22;;;11.23;67.29
35806;BME280;21925;44.608;11.580;2023-01-26T14:15:28;101290.94;;;10.50;66.95
35806;BME280;21925;44.608;11.580;2023-01-26T14:18:00;101317.06;;;10.97;68.07
35806;BME280;21925;44.608;11.580;2023-01-26T14:20:33;101372.09;;;11.86;67.21
35806;BME280;21925;44.608;11.580;2023-01-26T14:23:15;101363.56;;;11.67;66.96
35806;BME280;21925;44.608;11.580;2023-01-26T14:25:48;101355.16;;;11.10;65.64
35806;BME280;21925;44.608;11.580;2023-01-26T14:28:29;101371.50;;;11.07;65.48
35806;BME280;21925;44.608;11.580;2023-01-26T14:31:19;101265.69;;;10.45;66.45
35806;BME280;21925;44.608;11.580;2023-01-26T14:33:49;101356.03;;;11.23;68.03
35806;BME280;21925;44.608;11.580;2023-01-26T14:36:20;101382.78;;;11.14;66.90
35806;BME280;21925;44.608;11.580;2023-01-26T14:38:50;101305.81;;;10.70;67.46
35806;BME280;21925;44.608;11.580;2023-01-26T14:41:29;101343.28;;;10.86;67.89
35806;BME280;21925;44.608;11.580;2023-01-26T14:43:57;101370.06;;;10.89;67.07
35806;BME280;21925;44.608;11.580;2023-01-26T14:46:50;101364.34;;;10.94;67.87